createdAt,value
2023-02-28T00:02:54.736Z,5.57
2023-02-28T00:08:04.678Z,5.60
2023-02-28T00:13:10.829Z,5.55
2023-02-28T00:18:17.104Z,5.35
2023-02-28T00:23:23.163Z,5.55
2023-02-28T00:28:29.511Z,5.46
2023-02-28T00:33:35.668Z,5.98
2023-02-28T00:38:41.918Z,6.64
2023-02-28T00:43:48.102Z,6.42
2023-02-28T00:48:54.475Z,6.37
2023-02-28T00:54:00.721Z,6.55
2023-02-28T00:59:07.052Z,6.29
2023-02-28T01:04:13.227Z,6.32
2023-02-28T01:09:19.487Z,5.62
2023-02-28T01:14:25.579Z,5.77
2023-02-28T01:19:31.773Z,5.83
2023-02-28T01:24:37.964Z,5.66
2023-02-28T01:29:44.163Z,5.59
2023-02-28T01:34:50.294Z,5.79
2023-02-28T01:39:57.226Z,5.56
2023-02-28T01:45:03.358Z,5.47
2023-02-28T01:50:09.536Z,5.50
2023-02-28T01:55:15.613Z,5.57
2023-02-28T02:00:21.846Z,5.46
2023-02-28T02:05:27.917Z,5.36
2023-02-28T02:10:34.136Z,5.14
2023-02-28T02:15:40.247Z,5.41
2023-02-28T02:20:46.445Z,5.63
2023-02-28T02:25:52.535Z,5.71
2023-02-28T02:30:58.825Z,5.22
2023-02-28T02:36:05.136Z,5.43
2023-02-28T02:41:11.352Z,5.34
2023-02-28T02:46:17.473Z,5.05
2023-02-28T02:51:23.731Z,5.13
2023-02-28T02:56:29.839Z,5.31
2023-02-28T03:01:36.054Z,5.22
2023-02-28T03:06:42.196Z,5.11
2023-02-28T03:11:48.484Z,5.40
2023-02-28T03:16:54.591Z,5.10
2023-02-28T03:22:00.804Z,4.99
2023-02-28T03:27:06.874Z,5.28
2023-02-28T03:32:13.736Z,5.20
2023-02-28T03:37:19.912Z,5.41
2023-02-28T03:42:26.138Z,4.80
2023-02-28T03:47:32.310Z,4.68
2023-02-28T03:52:39.270Z,4.81
2023-02-28T03:57:45.396Z,4.70
2023-02-28T04:02:51.672Z,4.30
2023-02-28T04:07:57.739Z,4.64
2023-02-28T04:13:03.922Z,4.69
2023-02-28T04:18:09.984Z,4.15
2023-02-28T04:23:16.175Z,4.16
2023-02-28T04:28:22.301Z,4.26
2023-02-28T04:33:28.567Z,4.27
2023-02-28T04:38:34.686Z,4.55
2023-02-28T04:43:41.016Z,4.32
2023-02-28T04:48:47.199Z,4.00
2023-02-28T04:53:53.381Z,4.01
2023-02-28T04:58:59.538Z,4.34
2023-02-28T05:04:05.873Z,4.65
2023-02-28T05:09:12.001Z,4.66
2023-02-28T05:14:18.231Z,4.85
2023-02-28T05:19:24.324Z,4.39
2023-02-28T05:24:30.545Z,4.43
2023-02-28T05:29:36.730Z,5.24
2023-02-28T05:34:43.062Z,6.73
2023-02-28T05:39:49.127Z,5.79
2023-02-28T05:44:55.370Z,6.03
2023-02-28T05:50:03.979Z,5.92
2023-02-28T05:55:10.172Z,5.47
2023-02-28T06:00:16.646Z,5.75
2023-02-28T06:05:22.955Z,5.95
2023-02-28T06:10:29.070Z,5.59
2023-02-28T06:15:35.370Z,5.27
2023-02-28T06:20:41.454Z,5.69
2023-02-28T06:25:47.672Z,5.69
2023-02-28T06:30:53.842Z,5.68
2023-02-28T06:36:00.145Z,6.13
2023-02-28T06:41:06.213Z,6.01
2023-02-28T06:46:12.807Z,6.05
2023-02-28T06:51:18.800Z,6.01
2023-02-28T06:56:24.977Z,5.68
2023-02-28T07:01:31.464Z,5.99
2023-02-28T07:06:36.902Z,5.78
2023-02-28T07:11:43.052Z,5.87
2023-02-28T07:16:49.198Z,6.34
2023-02-28T07:21:55.286Z,5.32
2023-02-28T07:27:01.611Z,4.56
2023-02-28T07:32:07.824Z,4.74
2023-02-28T07:37:13.978Z,4.89
2023-02-28T07:42:20.216Z,5.00
2023-02-28T07:47:26.483Z,3.84
2023-02-28T07:52:32.712Z,3.81
2023-02-28T07:57:38.877Z,3.84
2023-02-28T08:02:44.932Z,3.37
2023-02-28T08:07:51.253Z,3.42
2023-02-28T08:12:57.316Z,3.34
2023-02-28T08:18:03.519Z,3.21
2023-02-28T08:23:09.570Z,3.23
2023-02-28T08:28:15.734Z,3.05
2023-02-28T08:33:21.879Z,2.91
2023-02-28T08:38:28.099Z,2.84
2023-02-28T08:43:34.180Z,2.98
2023-02-28T08:48:40.311Z,2.60
2023-02-28T08:53:46.487Z,3.03
2023-02-28T08:58:52.645Z,2.96
2023-02-28T09:03:58.765Z,2.51
2023-02-28T09:09:04.972Z,2.56
2023-02-28T09:14:11.075Z,2.33
2023-02-28T09:19:17.335Z,2.16
2023-02-28T09:24:23.502Z,2.54
2023-02-28T09:29:29.716Z,2.45
2023-02-28T09:34:35.811Z,2.11
2023-02-28T09:39:42.049Z,1.93
2023-02-28T09:44:48.151Z,2.14
2023-02-28T09:49:54.308Z,1.94
2023-02-28T09:55:00.368Z,1.75
2023-02-28T10:00:06.535Z,1.82
2023-02-28T10:05:12.764Z,1.84
2023-02-28T10:10:19.029Z,1.92
2023-02-28T10:15:25.232Z,1.70
2023-02-28T10:20:31.512Z,1.76
2023-02-28T10:25:37.649Z,1.70
2023-02-28T10:30:43.946Z,1.73
2023-02-28T10:35:50.081Z,1.56
2023-02-28T10:40:56.202Z,1.60
2023-02-28T10:46:02.376Z,1.66
2023-02-28T10:51:08.586Z,1.60
2023-02-28T10:56:14.652Z,1.81
2023-02-28T11:01:21.395Z,1.59
2023-02-28T11:06:27.482Z,1.51
2023-02-28T11:11:33.660Z,1.47
2023-02-28T11:16:39.732Z,1.57
2023-02-28T11:21:46.001Z,1.66
2023-02-28T11:26:52.101Z,1.54
2023-02-28T11:31:58.446Z,1.47
2023-02-28T11:37:04.533Z,1.43
2023-02-28T11:42:10.706Z,1.73
2023-02-28T11:47:16.824Z,1.53
2023-02-28T11:52:23.032Z,1.58
2023-02-28T11:57:29.118Z,1.61
2023-02-28T12:02:35.332Z,1.32
2023-02-28T12:07:41.366Z,1.70
2023-02-28T12:12:47.566Z,1.55
2023-02-28T12:17:53.610Z,1.51
2023-02-28T12:23:00.176Z,1.49
2023-02-28T12:28:06.283Z,1.40
2023-02-28T12:33:12.469Z,1.68
2023-02-28T12:38:18.860Z,1.62
2023-02-28T12:43:25.190Z,1.51
2023-02-28T12:48:31.320Z,1.60
2023-02-28T12:53:37.686Z,1.60
2023-02-28T12:58:43.770Z,1.58
2023-02-28T13:03:49.956Z,1.58
2023-02-28T13:08:56.020Z,1.77
2023-02-28T13:14:02.170Z,1.54
2023-02-28T13:19:08.241Z,1.62
2023-02-28T13:24:14.489Z,1.68
2023-02-28T13:29:20.631Z,1.66
2023-02-28T13:34:26.851Z,1.76
2023-02-28T13:39:35.163Z,1.99
2023-02-28T13:44:38.800Z,1.76
2023-02-28T13:49:44.903Z,1.94
2023-02-28T13:54:51.768Z,1.86
2023-02-28T13:59:56.788Z,1.83
2023-02-28T14:05:03.054Z,1.90
2023-02-28T14:10:09.163Z,1.73
2023-02-28T14:15:15.317Z,1.98
2023-02-28T14:20:21.392Z,1.80
2023-02-28T14:25:27.937Z,2.08
2023-02-28T14:30:34.351Z,1.91
2023-02-28T14:35:39.579Z,1.93
2023-02-28T14:40:45.659Z,2.08
2023-02-28T14:45:51.877Z,1.94
2023-02-28T14:50:58.056Z,2.06
2023-02-28T14:56:04.259Z,1.88
2023-02-28T15:01:10.563Z,1.83
2023-02-28T15:06:16.793Z,2.05
2023-02-28T15:11:22.904Z,1.94
2023-02-28T15:16:29.601Z,2.06
2023-02-28T15:21:34.781Z,1.94
2023-02-28T15:26:40.961Z,1.99
2023-02-28T15:31:56.813Z,1.90
2023-02-28T15:36:52.855Z,1.82
2023-02-28T15:41:58.937Z,2.03
2023-02-28T15:47:05.216Z,2.03
2023-02-28T15:52:11.297Z,2.42
2023-02-28T15:57:17.759Z,2.11
2023-02-28T16:02:24.104Z,2.01
2023-02-28T16:07:30.456Z,2.08
2023-02-28T16:12:36.607Z,2.01
2023-02-28T16:17:42.782Z,2.08
2023-02-28T16:22:48.883Z,2.00
2023-02-28T16:27:55.082Z,2.16
2023-02-28T16:33:01.177Z,2.12
2023-02-28T16:39:12.886Z,2.31
2023-02-28T16:44:19.735Z,2.35
2023-02-28T16:49:25.927Z,3.05
2023-02-28T16:54:32.082Z,2.20
2023-02-28T16:59:38.387Z,2.25
2023-02-28T17:04:44.464Z,2.37
2023-02-28T17:09:53.470Z,2.42
2023-02-28T17:14:59.550Z,2.77
2023-02-28T17:20:05.919Z,2.93
2023-02-28T17:25:11.975Z,4.25
2023-02-28T17:30:18.793Z,3.81
2023-02-28T17:35:25.160Z,4.33
2023-02-28T17:40:30.653Z,4.75
2023-02-28T17:45:36.787Z,5.03
2023-02-28T17:50:43.324Z,4.67
2023-02-28T17:55:49.559Z,5.06
2023-02-28T18:00:55.694Z,4.94
2023-02-28T18:06:01.827Z,5.05
2023-02-28T18:11:09.979Z,4.82
2023-02-28T18:16:16.131Z,5.02
2023-02-28T18:21:22.267Z,5.05
2023-02-28T18:26:28.730Z,5.01
2023-02-28T18:31:34.191Z,5.24
2023-02-28T18:36:40.497Z,4.90
2023-02-28T18:41:46.941Z,5.18
2023-02-28T18:46:53.349Z,5.44
2023-02-28T18:51:59.688Z,5.73
2023-02-28T18:57:06.775Z,5.56
2023-02-28T19:02:13.069Z,5.84
2023-02-28T19:07:19.309Z,5.79
2023-02-28T19:12:25.633Z,6.16
2023-02-28T19:17:31.823Z,6.66
2023-02-28T19:22:38.142Z,6.91
2023-02-28T19:27:44.685Z,7.63
2023-02-28T19:32:50.939Z,8.01
2023-02-28T19:37:58.884Z,8.44
2023-02-28T19:43:05.246Z,8.36
2023-02-28T19:48:08.707Z,8.97
2023-02-28T19:53:15.107Z,10.53
2023-02-28T19:58:21.296Z,11.77
2023-02-28T20:03:27.732Z,13.00
2023-02-28T20:08:33.901Z,13.24
2023-02-28T20:13:40.100Z,13.76
2023-02-28T20:18:46.318Z,13.97
2023-02-28T20:23:52.456Z,14.12
2023-02-28T20:28:58.668Z,13.54
2023-02-28T20:34:04.901Z,13.24
2023-02-28T20:39:11.020Z,13.17
2023-02-28T20:44:17.326Z,13.14
2023-02-28T20:49:23.440Z,13.28
2023-02-28T20:54:29.692Z,13.42
2023-02-28T20:59:35.826Z,13.61
2023-02-28T21:04:42.015Z,12.98
2023-02-28T21:09:48.220Z,13.10
2023-02-28T21:14:54.549Z,13.53
2023-02-28T21:20:00.808Z,13.65
2023-02-28T21:25:07.048Z,13.98
2023-02-28T21:30:13.248Z,13.28
2023-02-28T21:35:19.600Z,12.84
2023-02-28T21:40:25.676Z,13.10
2023-02-28T21:45:31.878Z,13.50
2023-02-28T21:50:38.050Z,13.00
2023-02-28T21:55:44.361Z,12.99
2023-02-28T22:00:50.422Z,12.38
2023-02-28T22:05:56.611Z,12.51
2023-02-28T22:11:02.775Z,12.89
2023-02-28T22:16:09.158Z,13.08
2023-02-28T22:21:15.185Z,13.50
2023-02-28T22:26:21.357Z,13.08
2023-02-28T22:31:27.577Z,12.66
2023-02-28T22:36:33.850Z,13.05
2023-02-28T22:41:39.981Z,13.34
2023-02-28T22:46:46.322Z,12.59
2023-02-28T22:51:52.394Z,12.97
2023-02-28T22:56:58.743Z,12.58
2023-02-28T23:02:04.908Z,12.73
2023-02-28T23:07:11.244Z,11.78
2023-02-28T23:12:17.345Z,11.37
2023-02-28T23:17:23.659Z,11.88
2023-02-28T23:22:29.825Z,11.65
2023-02-28T23:27:36.220Z,11.79
2023-02-28T23:32:42.428Z,11.88
2023-02-28T23:37:48.565Z,11.41
2023-02-28T23:42:54.757Z,11.77
2023-02-28T23:48:00.957Z,11.37
2023-02-28T23:53:07.228Z,11.36
2023-02-28T23:58:13.412Z,11.35
